createdAt,value
2017-10-29T00:02:00.543Z,12.50
2017-10-29T00:04:28.847Z,12.60
2017-10-29T00:06:57.182Z,12.50
2017-10-29T00:09:25.477Z,12.50
2017-10-29T00:11:53.787Z,12.50
2017-10-29T00:14:22.088Z,12.50
2017-10-29T00:16:50.439Z,12.50
2017-10-29T00:19:18.740Z,12.50
2017-10-29T00:21:47.052Z,12.60
2017-10-29T00:24:16.110Z,12.60
2017-10-29T00:26:44.472Z,12.50
2017-10-29T00:29:12.768Z,12.50
2017-10-29T00:31:41.079Z,12.60
2017-10-29T00:34:09.388Z,12.50
2017-10-29T00:36:37.683Z,12.50
2017-10-29T00:39:06.014Z,12.50
2017-10-29T00:41:35.078Z,12.60
2017-10-29T00:44:03.404Z,12.60
2017-10-29T00:46:31.708Z,12.60
2017-10-29T00:49:00.022Z,12.60
2017-10-29T00:51:28.318Z,12.60
2017-10-29T00:53:56.685Z,12.60
2017-10-29T00:56:25.004Z,12.60
2017-10-29T00:58:53.295Z,12.50
2017-10-29T01:01:21.602Z,12.50
2017-10-29T01:03:50.693Z,12.50
2017-10-29T01:06:19.038Z,12.40
2017-10-29T01:08:47.334Z,12.40
2017-10-29T01:11:15.671Z,12.40
2017-10-29T01:13:43.974Z,12.40
2017-10-29T01:16:12.304Z,12.30
2017-10-29T01:18:40.627Z,12.30
2017-10-29T01:21:08.972Z,12.30
2017-10-29T01:23:37.271Z,12.30
2017-10-29T01:26:05.612Z,12.30
2017-10-29T01:28:33.928Z,12.20
2017-10-29T01:31:02.223Z,12.20
2017-10-29T01:33:30.546Z,12.20
2017-10-29T01:35:59.607Z,12.20
2017-10-29T01:38:27.944Z,12.20
2017-10-29T01:40:56.227Z,12.30
2017-10-29T01:43:24.539Z,12.30
2017-10-29T01:45:52.821Z,12.20
2017-10-29T01:48:21.157Z,12.20
2017-10-29T01:50:49.467Z,12.10
2017-10-29T01:53:18.556Z,12.20
2017-10-29T01:55:46.876Z,12.10
2017-10-29T01:58:15.938Z,12.20
2017-10-29T02:00:44.256Z,12.10
2017-10-29T02:03:12.546Z,12.20
2017-10-29T02:05:40.871Z,12.30
2017-10-29T02:08:09.183Z,12.30
2017-10-29T02:10:37.534Z,12.30
2017-10-29T02:13:05.812Z,12.30
2017-10-29T02:15:34.912Z,12.40
2017-10-29T02:18:03.973Z,12.40
2017-10-29T02:20:32.268Z,12.30
2017-10-29T02:23:00.590Z,12.40
2017-10-29T02:25:28.891Z,12.40
2017-10-29T02:27:57.199Z,12.50
2017-10-29T02:30:25.496Z,12.50
2017-10-29T02:32:54.570Z,12.50
2017-10-29T02:35:23.645Z,12.60
2017-10-29T02:37:51.982Z,12.50
2017-10-29T02:40:20.294Z,12.60
2017-10-29T02:42:48.623Z,12.60
2017-10-29T02:45:17.673Z,12.60
2017-10-29T02:47:46.756Z,12.60
2017-10-29T02:50:15.075Z,12.60
2017-10-29T02:52:44.150Z,12.50
2017-10-29T02:55:12.474Z,12.50
2017-10-29T02:57:40.781Z,12.50
2017-10-29T03:00:09.195Z,12.30
2017-10-29T03:02:38.262Z,11.60
2017-10-29T03:05:06.658Z,11.50
2017-10-29T03:07:35.723Z,11.10
2017-10-29T03:10:04.044Z,11.10
2017-10-29T03:12:33.112Z,11.00
2017-10-29T03:15:01.452Z,10.90
2017-10-29T03:17:29.738Z,10.90
2017-10-29T03:19:58.093Z,10.90
2017-10-29T03:22:26.395Z,10.80
2017-10-29T03:24:54.719Z,10.70
2017-10-29T03:27:23.803Z,10.70
2017-10-29T03:29:52.879Z,10.70
2017-10-29T03:32:21.279Z,10.70
2017-10-29T03:34:50.378Z,10.80
2017-10-29T03:37:18.715Z,10.80
2017-10-29T03:39:47.034Z,10.80
2017-10-29T03:42:16.132Z,10.60
2017-10-29T03:44:44.447Z,10.50
2017-10-29T03:47:12.884Z,10.40
2017-10-29T03:49:42.345Z,10.30
2017-10-29T03:52:10.668Z,10.20
2017-10-29T03:54:40.553Z,10.10
2017-10-29T03:57:08.857Z,10.10
2017-10-29T03:59:38.054Z,10.00
2017-10-29T04:02:06.436Z,10.00
2017-10-29T04:04:35.607Z,9.90
2017-10-29T04:07:03.915Z,9.80
2017-10-29T04:09:33.014Z,9.70
2017-10-29T04:12:01.322Z,9.60
2017-10-29T04:14:29.648Z,9.50
2017-10-29T04:16:58.713Z,9.40
2017-10-29T04:19:27.046Z,9.30
2017-10-29T04:21:55.363Z,9.40
2017-10-29T04:24:23.667Z,9.40
2017-10-29T04:26:52.760Z,9.40
2017-10-29T04:29:21.141Z,9.30
2017-10-29T04:31:50.246Z,9.40
2017-10-29T04:34:19.296Z,9.30
2017-10-29T04:36:47.626Z,9.30
2017-10-29T04:39:15.910Z,9.40
2017-10-29T04:41:44.246Z,9.40
2017-10-29T04:44:12.549Z,9.40
2017-10-29T04:46:40.871Z,9.40
2017-10-29T04:49:09.155Z,9.40
2017-10-29T04:51:37.467Z,9.50
2017-10-29T04:54:06.538Z,9.60
2017-10-29T04:56:35.038Z,9.60
2017-10-29T04:59:04.136Z,9.70
2017-10-29T05:01:33.230Z,9.70
2017-10-29T05:04:02.322Z,9.90
2017-10-29T05:06:31.386Z,9.90
2017-10-29T05:08:59.908Z,9.80
2017-10-29T05:11:29.004Z,9.90
2017-10-29T05:13:58.105Z,9.90
2017-10-29T05:16:26.394Z,9.90
2017-10-29T05:18:54.866Z,10.00
2017-10-29T05:21:23.195Z,10.00
2017-10-29T05:23:51.516Z,10.00
2017-10-29T05:26:19.845Z,10.00
2017-10-29T05:28:48.256Z,10.00
2017-10-29T05:31:17.347Z,10.00
2017-10-29T05:33:46.407Z,10.00
2017-10-29T05:36:15.524Z,10.00
2017-10-29T05:38:43.833Z,10.00
2017-10-29T05:41:12.183Z,10.10
2017-10-29T05:43:41.285Z,10.00
2017-10-29T05:46:10.383Z,10.00
2017-10-29T05:48:39.443Z,9.90
2017-10-29T05:51:07.851Z,9.90
2017-10-29T05:53:36.910Z,9.80
2017-10-29T05:56:05.207Z,9.80
2017-10-29T05:58:33.523Z,9.80
2017-10-29T06:01:01.851Z,9.80
2017-10-29T06:03:30.152Z,9.80
2017-10-29T06:05:59.203Z,9.90
2017-10-29T06:08:27.520Z,9.80
2017-10-29T06:10:55.860Z,9.90
2017-10-29T06:13:24.288Z,9.90
2017-10-29T06:15:52.564Z,9.90
2017-10-29T06:18:21.946Z,9.90
2017-10-29T06:20:51.028Z,9.90
2017-10-29T06:23:19.318Z,9.90
2017-10-29T06:25:47.645Z,10.00
2017-10-29T06:28:15.939Z,10.00
2017-10-29T06:30:44.264Z,10.00
2017-10-29T06:33:13.870Z,9.80
2017-10-29T06:35:42.960Z,9.80
2017-10-29T06:38:12.023Z,9.80
2017-10-29T06:40:40.349Z,9.80
2017-10-29T06:43:08.647Z,9.80
2017-10-29T06:45:36.967Z,9.80
2017-10-29T06:48:05.274Z,9.90
2017-10-29T06:50:33.594Z,9.90
2017-10-29T06:53:01.890Z,9.90
2017-10-29T06:55:30.192Z,9.90
2017-10-29T06:57:59.270Z,9.90
2017-10-29T07:00:28.342Z,9.90
2017-10-29T07:02:56.675Z,9.90
2017-10-29T07:05:24.981Z,9.90
2017-10-29T07:07:53.332Z,10.00
2017-10-29T07:10:21.687Z,10.00
2017-10-29T07:12:50.795Z,10.00
2017-10-29T07:15:19.843Z,9.90
2017-10-29T07:17:48.157Z,9.90
2017-10-29T07:20:16.464Z,9.80
2017-10-29T07:22:44.758Z,9.50
2017-10-29T07:25:13.079Z,9.40
2017-10-29T07:27:41.359Z,9.40
2017-10-29T07:30:10.443Z,9.50
2017-10-29T07:32:39.549Z,9.50
2017-10-29T07:35:07.867Z,9.50
2017-10-29T07:37:36.181Z,9.50
2017-10-29T07:40:04.479Z,9.60
2017-10-29T07:42:33.534Z,9.80
2017-10-29T07:45:01.854Z,9.80
2017-10-29T07:47:30.912Z,10.00
2017-10-29T07:49:59.247Z,10.00
2017-10-29T07:52:27.555Z,10.10
2017-10-29T07:54:56.019Z,10.10
2017-10-29T07:57:24.323Z,10.20
2017-10-29T07:59:52.661Z,10.10
2017-10-29T08:02:21.056Z,9.90
2017-10-29T08:04:49.356Z,9.60
2017-10-29T08:07:17.682Z,9.20
2017-10-29T08:09:45.971Z,8.90
2017-10-29T08:12:14.280Z,8.50
2017-10-29T08:14:42.581Z,7.70
2017-10-29T08:17:10.987Z,7.60
2017-10-29T08:19:39.284Z,7.50
2017-10-29T08:22:07.765Z,7.40
2017-10-29T08:24:36.126Z,7.50
2017-10-29T08:27:04.465Z,7.50
2017-10-29T08:29:33.549Z,7.60
2017-10-29T08:32:01.945Z,7.50
2017-10-29T08:34:31.038Z,7.60
2017-10-29T08:36:59.352Z,7.50
2017-10-29T08:39:27.651Z,7.60
2017-10-29T08:41:55.986Z,7.80
2017-10-29T08:44:24.355Z,7.80
2017-10-29T08:46:52.726Z,8.00
2017-10-29T08:49:21.055Z,8.10
2017-10-29T08:51:49.346Z,8.30
2017-10-29T08:54:17.686Z,8.40
2017-10-29T08:56:45.975Z,8.60
2017-10-29T08:59:14.291Z,8.70
2017-10-29T09:01:42.676Z,8.80
2017-10-29T09:04:11.027Z,8.80
2017-10-29T09:06:39.327Z,8.90
2017-10-29T09:09:08.427Z,8.90
2017-10-29T09:11:37.495Z,8.90
2017-10-29T09:14:05.930Z,8.80
2017-10-29T09:16:34.988Z,8.80
2017-10-29T09:19:03.274Z,8.80
2017-10-29T09:21:31.575Z,8.80
2017-10-29T09:23:59.893Z,8.80
2017-10-29T09:26:28.195Z,8.90
2017-10-29T09:28:56.473Z,8.90
2017-10-29T09:31:25.589Z,9.00
2017-10-29T09:33:54.638Z,9.10
2017-10-29T09:36:22.955Z,9.00
2017-10-29T09:38:51.227Z,9.10
2017-10-29T09:41:20.406Z,9.30
2017-10-29T09:43:49.507Z,9.40
2017-10-29T09:46:18.628Z,9.40
2017-10-29T09:48:46.916Z,9.30
2017-10-29T09:51:15.303Z,9.40
2017-10-29T09:53:43.598Z,9.40
2017-10-29T09:56:11.895Z,9.30
2017-10-29T09:58:40.188Z,9.20
2017-10-29T10:01:08.455Z,9.10
2017-10-29T10:03:36.756Z,9.20
2017-10-29T10:06:05.794Z,9.30
2017-10-29T10:08:34.101Z,9.20
2017-10-29T10:11:02.428Z,9.30
2017-10-29T10:13:30.690Z,9.30
2017-10-29T10:15:59.784Z,9.60
2017-10-29T10:18:28.059Z,9.60
2017-10-29T10:20:56.368Z,9.60
2017-10-29T10:23:24.647Z,9.60
2017-10-29T10:25:52.991Z,9.70
2017-10-29T10:28:21.293Z,9.70
2017-10-29T10:30:49.602Z,9.60
2017-10-29T10:33:17.894Z,9.60
2017-10-29T10:35:46.992Z,9.60
2017-10-29T10:38:16.039Z,9.70
2017-10-29T10:40:44.363Z,9.60
2017-10-29T10:43:12.634Z,9.70
2017-10-29T10:45:41.700Z,9.70
2017-10-29T10:48:10.035Z,9.70
2017-10-29T10:50:38.330Z,9.80
2017-10-29T10:53:06.656Z,9.80
2017-10-29T10:55:35.709Z,9.90
2017-10-29T10:58:04.034Z,9.80
2017-10-29T11:00:33.083Z,9.90
2017-10-29T11:03:01.518Z,9.80
2017-10-29T11:05:30.566Z,9.90
2017-10-29T11:07:58.895Z,9.90
2017-10-29T11:10:27.202Z,9.90
2017-10-29T11:12:55.517Z,10.00
2017-10-29T11:15:23.794Z,10.00
2017-10-29T11:17:52.120Z,10.00
2017-10-29T11:20:20.404Z,10.00
2017-10-29T11:22:48.742Z,10.10
2017-10-29T11:25:17.023Z,10.10
2017-10-29T11:27:45.363Z,10.10
2017-10-29T11:30:13.676Z,10.10
2017-10-29T11:32:42.739Z,10.30
2017-10-29T11:35:11.036Z,10.20
2017-10-29T11:37:40.089Z,10.30
2017-10-29T11:40:08.427Z,10.30
2017-10-29T11:42:36.718Z,10.30
2017-10-29T11:45:05.070Z,10.30
2017-10-29T11:47:33.439Z,10.40
2017-10-29T11:50:01.785Z,10.50
2017-10-29T11:52:30.068Z,10.60
2017-10-29T11:54:58.382Z,10.70
2017-10-29T11:57:27.453Z,10.90
2017-10-29T11:59:55.736Z,10.90
2017-10-29T12:02:24.825Z,11.00
2017-10-29T12:04:53.110Z,11.00
2017-10-29T12:07:22.196Z,11.30
2017-10-29T12:09:51.269Z,11.70
2017-10-29T12:12:19.623Z,11.60
2017-10-29T12:14:47.942Z,11.70
2017-10-29T12:17:17.063Z,11.20
2017-10-29T12:19:45.351Z,11.20
2017-10-29T12:22:13.664Z,11.20
2017-10-29T12:24:41.970Z,11.20
2017-10-29T12:27:11.048Z,10.60
2017-10-29T12:29:39.374Z,10.50
